Double Eagle Ii, NM

3:20 AM MDT on September 02, 2014 (GMT -0600)
Next to the Petroglyph Natl. Monument | Change Station
CLOSE
Current Station
Personal Weather Station
Location: Albuquerque, NM
Elevation: 5245 ft
Nearby Weather Stations

Elev 5245 ft 35.11 °N, 106.74 °W | Updated 25 seconds ago

Clear
Clear
67.4 °F
Feels Like 67.4 °F
N
0.0
Wind Variable Wind from NNE
Gusts 0.0 mph

Today
High -- | Low -- °F
--% Chance of Precip.
Yesterday
High -- | Low -- °F
Precip. -- in
6:40 AM 7:32 PM
Waxing Crescent, 49% visible
Pressure 29.80 in
Visibility 10.0 miles
Clouds Clear
Dew Point 33 °F
Humidity 28%
Rainfall 0.00 in
Snow Depth Not available.
UV 0 out of 12
Pollen 8.90 out of 12
Air Quality Not available.
Flu Activity Not available.
METAR KABQ 020852Z 29003KT 10SM CLR 22/04 A3008 RMK AO2 SLP089 T02220044 51001

More Conditions Fewer Conditions

Pressure 29.80 in
Visibility 10.0 miles
Clouds Clear
Dew Point 33 °F
Humidity 28%
Rainfall 0.00 in
Snow Depth Not available.
UV 0 out of 12
Pollen 8.90 out of 12
Air Quality Not available.
Flu Activity Not available.
METAR KABQ 020852Z 29003KT 10SM CLR 22/04 A3008 RMK AO2 SLP089 T02220044 51001

More Conditions Fewer Conditions

10-Day Weather Forecast

Almanac

Astronomy

Sep. 02, 2014 Rise Set
Actual Time 6:40 AM MDT 7:32 PM MDT
Civil Twilight 6:14 AM MDT 7:58 PM MDT
Nautical Twilight 5:44 AM MDT 8:28 PM MDT
Astronomical Twilight 5:12 AM MDT 9:00 PM MDT
Moon 2:11 PM MDT No Moon Set
Length of Visible Light 13h 43m
Length of Day
12h 51m
Tomorrow will be 2m 7s shorter.
Waxing Crescent, 49% of the Moon is Illuminated
Today
Waxing Crescent
Sep 2
First Quarter
Sep 8
Full
Sep 15
Last Quarter
Sep 24
New

Today's Extremes

State Highs State Lows

Community

WunderPhotos

Upload Photos

1,749,587 photos uploaded!

WunderBlogs® & News

Nearby

Snow Depth

Station Depth Elevation
Quemazon 1 in 9500 ft
Senorita Divide #2 0 in 8600 ft
Wesner Springs 1 in 11120 ft
Rice Park 0 in 8460 ft
Bateman 0 in 9300 ft

Earthquake Activity

City Distance Mag. Time & Date
Trinidad, Colorado 168 miles 2.7 4:20 AM MDT
2014-08-31
Minimum magnitude displayed is 2.5.

Coastal Water Temperatures

Place Temperature
No Stations Reporting

Nearby Weather Stations